Time;durP1;ratioP1;P1;durP2;ratioP2;P2;SDS_P1;SDS_P2;PMS_P1;PMS_P2;Temp;Humidity;BMP_temperature;BMP_pressure;BME280_temperature;BME280_humidity;BME280_pressure;Samples;Min_cycle;Max_cycle;Signal;HPM_P1;HPM_P2
2020/12/14 00:02:07;;;;;;;8.77;5.67;;;5.80;99.90;;;;;;5093828;28;20435;-72
2020/12/14 00:04:33;;;;;;;11.27;5.20;;;5.80;99.90;;;;;;5094005;28;20461;-73
2020/12/14 00:06:59;;;;;;;7.90;4.83;;;5.80;99.90;;;;;;5095377;28;20407;-72
2020/12/14 00:09:25;;;;;;;16.03;6.17;;;5.80;99.90;;;;;;5089710;28;20170;-72
2020/12/14 00:11:51;;;;;;;7.83;4.87;;;5.80;99.90;;;;;;5085021;28;20176;-72
2020/12/14 00:14:16;;;;;;;9.07;6.87;;;5.80;99.90;;;;;;5093903;28;20174;-72
2020/12/14 00:16:43;;;;;;;8.60;5.50;;;5.80;99.90;;;;;;5094892;28;20433;-71
2020/12/14 00:19:08;;;;;;;7.13;4.43;;;5.90;99.90;;;;;;5094618;28;20239;-72
2020/12/14 00:21:34;;;;;;;9.80;5.60;;;5.90;99.90;;;;;;5092404;28;20527;-72
2020/12/14 00:24:00;;;;;;;7.30;5.30;;;6.00;99.90;;;;;;5095559;28;20645;-71
2020/12/14 00:26:26;;;;;;;5.10;4.03;;;5.90;99.90;;;;;;5095301;28;20880;-72
2020/12/14 00:28:51;;;;;;;7.77;4.03;;;6.00;99.90;;;;;;5093710;28;20181;-72
2020/12/14 00:31:17;;;;;;;5.97;4.40;;;6.00;99.90;;;;;;5090726;28;20204;-72
2020/12/14 00:33:46;;;;;;;5.53;5.00;;;6.10;99.90;;;;;;5094421;28;20180;-72
2020/12/14 00:36:12;;;;;;;7.00;4.00;;;6.00;99.90;;;;;;5093373;28;20802;-72
2020/12/14 00:38:38;;;;;;;10.17;4.87;;;6.00;99.90;;;;;;5093581;28;20423;-72
2020/12/14 00:41:05;;;;;;;13.87;4.53;;;6.00;99.90;;;;;;5091258;28;20467;-71
2020/12/14 00:43:31;;;;;;;5.97;5.13;;;6.00;99.90;;;;;;5088210;28;20430;-73
2020/12/14 00:45:56;;;;;;;11.67;4.57;;;6.00;99.90;;;;;;5093856;28;20856;-73
2020/12/14 00:48:22;;;;;;;4.90;4.07;;;6.00;99.90;;;;;;5094056;28;20471;-71
2020/12/14 00:50:48;;;;;;;10.70;4.80;;;6.00;99.90;;;;;;5092639;28;20194;-71
2020/12/14 00:53:14;;;;;;;4.97;4.37;;;6.00;99.90;;;;;;5092687;28;20508;-71
2020/12/14 00:55:40;;;;;;;5.20;3.93;;;5.90;99.90;;;;;;5092119;28;20427;-71
2020/12/14 00:58:06;;;;;;;7.00;3.90;;;6.00;99.90;;;;;;5101864;28;20267;-72
2020/12/14 01:00:32;;;;;;;4.27;3.87;;;6.10;99.90;;;;;;5092736;28;20239;-71
2020/12/14 01:02:58;;;;;;;8.07;4.30;;;6.10;99.90;;;;;;5094357;28;20181;-72
2020/12/14 01:05:23;;;;;;;6.53;3.70;;;6.10;99.90;;;;;;5093890;28;20430;-72
2020/12/14 01:07:49;;;;;;;5.20;3.87;;;6.10;99.90;;;;;;5094361;28;20242;-73
2020/12/14 01:10:15;;;;;;;6.17;3.80;;;6.10;99.90;;;;;;5093689;28;20315;-72
2020/12/14 01:12:40;;;;;;;9.07;3.70;;;6.10;99.90;;;;;;5093815;28;20178;-72
2020/12/14 01:15:06;;;;;;;4.87;4.10;;;6.10;99.90;;;;;;5093840;28;20178;-71
2020/12/14 01:17:32;;;;;;;8.07;3.60;;;6.10;99.90;;;;;;5093939;28;20203;-72
2020/12/14 01:19:58;;;;;;;9.20;4.07;;;6.00;99.90;;;;;;5092939;28;20554;-72
2020/12/14 01:22:24;;;;;;;6.97;4.30;;;6.10;99.90;;;;;;5093768;28;20511;-72
2020/12/14 01:24:49;;;;;;;15.27;4.30;;;6.10;99.90;;;;;;5093833;28;20177;-72
2020/12/14 01:27:15;;;;;;;6.87;4.20;;;6.10;99.90;;;;;;5093105;28;20188;-72
2020/12/14 01:29:41;;;;;;;10.80;4.47;;;6.10;99.90;;;;;;5091569;28;20209;-72
2020/12/14 01:32:06;;;;;;;6.83;3.80;;;6.10;99.90;;;;;;5092498;28;20185;-72
2020/12/14 01:34:32;;;;;;;3.33;2.80;;;6.10;99.90;;;;;;5092345;28;20189;-72
2020/12/14 01:36:57;;;;;;;8.37;4.53;;;6.10;99.90;;;;;;5093660;28;20172;-72
2020/12/14 01:39:23;;;;;;;7.57;4.07;;;6.10;99.90;;;;;;5090926;28;20281;-71
2020/12/14 01:41:49;;;;;;;7.63;3.20;;;6.10;99.90;;;;;;5090518;28;20564;-72
2020/12/14 01:44:14;;;;;;;10.10;4.40;;;6.10;99.90;;;;;;5091544;28;20235;-72
2020/12/14 01:46:45;;;;;;;8.33;3.40;;;6.00;99.90;;;;;;5092506;28;20181;-71
2020/12/14 01:49:11;;;;;;;6.63;3.43;;;5.90;99.90;;;;;;5091711;28;20221;-72
2020/12/14 01:51:38;;;;;;;3.97;3.57;;;6.00;99.90;;;;;;5093027;28;20458;-72
2020/12/14 01:54:21;;;;;;;6.50;3.03;;;5.90;99.90;;;;;;5081658;28;20988;-71
2020/12/14 01:56:47;;;;;;;5.80;3.77;;;6.00;99.90;;;;;;5093301;28;20510;-72
2020/12/14 01:59:13;;;;;;;6.50;3.90;;;6.00;99.90;;;;;;5091858;28;20439;-72
2020/12/14 02:01:38;;;;;;;5.57;3.40;;;6.00;99.90;;;;;;5092166;28;20467;-72
2020/12/14 02:04:04;;;;;;;9.70;3.97;;;6.00;99.90;;;;;;5090892;28;20528;-72
2020/12/14 02:06:30;;;;;;;6.40;3.70;;;6.00;99.90;;;;;;5092085;28;20280;-73
2020/12/14 02:08:56;;;;;;;11.33;5.33;;;6.00;99.90;;;;;;5091210;28;20181;-71
2020/12/14 02:11:22;;;;;;;9.53;3.60;;;6.00;99.90;;;;;;5089725;28;20352;-72
2020/12/14 02:13:47;;;;;;;8.20;4.00;;;5.90;99.90;;;;;;5091892;28;20527;-72
2020/12/14 02:16:13;;;;;;;4.53;3.37;;;5.90;99.90;;;;;;5092750;28;20185;-72
2020/12/14 02:18:39;;;;;;;3.60;2.83;;;5.90;99.90;;;;;;5091872;28;20510;-72
2020/12/14 02:21:05;;;;;;;5.53;3.43;;;5.90;99.90;;;;;;5090407;28;21028;-72
2020/12/14 02:23:31;;;;;;;7.10;2.93;;;5.90;99.90;;;;;;5089808;28;20203;-72
2020/12/14 02:25:56;;;;;;;4.80;3.13;;;5.90;99.90;;;;;;5091848;28;20427;-72
2020/12/14 02:28:22;;;;;;;9.30;3.17;;;5.80;99.90;;;;;;5084329;28;20204;-71
2020/12/14 02:30:48;;;;;;;8.40;3.53;;;5.80;99.90;;;;;;5091034;28;20270;-72
2020/12/14 02:33:13;;;;;;;4.60;2.70;;;5.80;99.90;;;;;;5092664;28;20216;-72
2020/12/14 02:35:39;;;;;;;7.10;2.70;;;5.80;99.90;;;;;;5091342;28;20178;-72
2020/12/14 02:38:06;;;;;;;10.33;3.10;;;5.80;99.90;;;;;;5092054;28;20678;-72
2020/12/14 02:40:32;;;;;;;5.83;3.33;;;5.80;99.90;;;;;;5077137;28;20205;-72
2020/12/14 02:42:58;;;;;;;4.07;3.50;;;5.70;99.90;;;;;;5089166;28;20801;-72
2020/12/14 02:45:24;;;;;;;4.37;3.17;;;5.70;99.90;;;;;;5077203;28;20424;-72
2020/12/14 02:47:49;;;;;;;6.00;3.13;;;5.70;99.90;;;;;;5092346;28;20573;-71
2020/12/14 02:50:15;;;;;;;6.57;3.30;;;5.60;99.90;;;;;;5089416;28;20232;-72
2020/12/14 02:52:41;;;;;;;4.53;4.07;;;5.60;99.90;;;;;;5088704;28;20190;-71
2020/12/14 02:55:07;;;;;;;6.07;4.10;;;5.60;99.90;;;;;;5085704;28;20235;-72
2020/12/14 02:57:33;;;;;;;8.23;3.10;;;5.60;99.90;;;;;;5088734;28;20427;-72
2020/12/14 02:59:58;;;;;;;10.67;3.80;;;5.60;99.90;;;;;;5091960;28;20204;-72
2020/12/14 03:02:24;;;;;;;5.33;3.50;;;5.60;99.90;;;;;;5089124;28;20269;-72
2020/12/14 03:04:49;;;;;;;7.80;2.87;;;5.60;99.90;;;;;;5091634;28;20181;-72
2020/12/14 03:07:15;;;;;;;6.27;3.80;;;5.60;99.90;;;;;;5090450;28;20189;-73
2020/12/14 03:09:41;;;;;;;4.43;2.80;;;5.60;99.90;;;;;;5091294;28;20190;-71
2020/12/14 03:12:06;;;;;;;6.73;2.90;;;5.70;99.90;;;;;;5088614;28;20502;-72
2020/12/14 03:14:32;;;;;;;5.03;3.40;;;5.70;99.90;;;;;;5090392;28;20219;-72
2020/12/14 03:16:57;;;;;;;7.37;2.90;;;5.70;99.90;;;;;;5091308;28;20188;-72
2020/12/14 03:19:23;;;;;;;4.43;2.60;;;5.70;99.90;;;;;;5091617;28;20165;-72
2020/12/14 03:21:49;;;;;;;8.27;3.10;;;5.70;99.90;;;;;;5088837;28;20213;-73
2020/12/14 03:24:15;;;;;;;10.77;2.97;;;5.70;99.90;;;;;;5089773;28;20181;-72
2020/12/14 03:26:40;;;;;;;4.27;2.57;;;5.70;99.90;;;;;;5091125;28;20540;-71
2020/12/14 03:29:08;;;;;;;5.23;2.80;;;5.70;99.90;;;;;;5091244;28;20184;-72
2020/12/14 03:31:35;;;;;;;4.43;2.70;;;5.80;99.90;;;;;;5089973;28;20443;-72
2020/12/14 03:34:01;;;;;;;11.77;3.33;;;5.70;99.90;;;;;;5091084;28;20445;-71
2020/12/14 03:36:26;;;;;;;5.67;2.30;;;5.80;99.90;;;;;;5090396;28;20435;-72
2020/12/14 03:38:54;;;;;;;4.87;2.77;;;5.80;99.90;;;;;;5089741;28;20178;-72
2020/12/14 03:41:21;;;;;;;3.70;2.87;;;5.90;99.90;;;;;;5089417;28;20212;-72
2020/12/14 03:43:47;;;;;;;5.17;2.90;;;5.90;99.90;;;;;;5090943;28;20431;-72
2020/12/14 03:46:18;;;;;;;4.50;2.70;;;5.90;99.90;;;;;;5090365;28;20430;-72
2020/12/14 03:48:43;;;;;;;6.63;2.47;;;6.00;99.90;;;;;;5089505;28;20428;-72
2020/12/14 03:51:13;;;;;;;3.37;2.50;;;6.00;99.90;;;;;;5090044;28;20550;-72
2020/12/14 03:53:39;;;;;;;7.53;2.30;;;6.00;99.90;;;;;;5091224;28;20181;-72
2020/12/14 03:56:04;;;;;;;2.50;2.30;;;6.00;99.90;;;;;;5089415;28;20435;-72
2020/12/14 03:58:31;;;;;;;2.90;2.30;;;6.10;99.90;;;;;;5087237;28;20177;-72
2020/12/14 04:00:56;;;;;;;3.90;2.60;;;6.10;99.90;;;;;;5085151;28;20521;-73
2020/12/14 04:03:23;;;;;;;4.30;2.63;;;6.10;99.90;;;;;;5087879;28;20817;-71
2020/12/14 04:05:49;;;;;;;3.57;2.30;;;6.10;99.90;;;;;;5091515;28;20176;-72
2020/12/14 04:08:15;;;;;;;4.73;2.63;;;6.00;99.90;;;;;;5090919;28;20873;-72
2020/12/14 04:10:41;;;;;;;3.70;2.50;;;6.10;99.90;;;;;;5088406;28;20498;-73
2020/12/14 04:13:07;;;;;;;3.83;2.03;;;6.10;99.90;;;;;;5091482;28;20432;-72
2020/12/14 04:15:33;;;;;;;5.13;2.90;;;6.10;99.90;;;;;;5091387;28;20430;-73
2020/12/14 04:17:58;;;;;;;6.03;2.93;;;6.20;99.90;;;;;;5089484;28;20189;-72
2020/12/14 04:20:24;;;;;;;8.20;3.03;;;6.20;99.90;;;;;;5090910;28;20244;-72
2020/12/14 04:22:50;;;;;;;3.63;2.13;;;6.20;99.90;;;;;;5089914;28;20165;-72
2020/12/14 04:25:16;;;;;;;8.93;3.37;;;6.20;99.90;;;;;;5090918;28;20643;-72
2020/12/14 04:27:42;;;;;;;5.20;2.73;;;6.30;99.90;;;;;;5092222;28;20192;-72
2020/12/14 04:30:08;;;;;;;4.33;2.30;;;6.30;99.90;;;;;;5094541;28;20435;-72
2020/12/14 04:32:35;;;;;;;4.03;2.30;;;6.30;99.90;;;;;;5093002;28;20427;-71
2020/12/14 04:35:00;;;;;;;2.20;2.00;;;6.30;99.90;;;;;;5093713;28;20427;-72
2020/12/14 04:37:26;;;;;;;5.30;1.87;;;6.30;99.90;;;;;;5094242;28;20755;-72
2020/12/14 04:39:51;;;;;;;3.90;2.20;;;6.30;99.90;;;;;;5090047;28;20200;-72
2020/12/14 04:42:17;;;;;;;2.37;1.77;;;6.30;99.90;;;;;;5084098;28;20534;-72
2020/12/14 04:44:43;;;;;;;2.47;1.70;;;6.40;99.90;;;;;;5077611;28;20177;-72
2020/12/14 04:47:13;;;;;;;2.80;1.93;;;6.40;99.90;;;;;;5094254;28;20913;-71
2020/12/14 04:49:42;;;;;;;3.47;2.30;;;6.30;99.90;;;;;;5093519;28;20254;-72
2020/12/14 04:52:08;;;;;;;4.40;2.60;;;6.30;99.90;;;;;;5093578;28;20458;-72
2020/12/14 04:54:34;;;;;;;5.37;2.57;;;6.20;99.90;;;;;;5091321;28;20787;-72
2020/12/14 04:57:08;;;;;;;3.83;2.60;;;6.20;99.90;;;;;;5094598;28;20395;-72
2020/12/14 04:59:34;;;;;;;4.80;2.73;;;6.10;99.90;;;;;;5094269;28;20202;-72
2020/12/14 05:02:08;;;;;;;4.80;3.00;;;6.10;99.90;;;;;;5078352;28;20788;-72
2020/12/14 05:04:36;;;;;;;4.50;2.70;;;6.10;99.90;;;;;;5093626;28;20947;-72
2020/12/14 05:07:01;;;;;;;3.00;2.80;;;6.10;99.90;;;;;;5093035;28;20423;-72
2020/12/14 05:09:27;;;;;;;5.40;2.20;;;6.10;99.90;;;;;;5093739;28;20470;-71
2020/12/14 05:11:53;;;;;;;4.90;2.63;;;6.10;99.90;;;;;;5093789;28;20260;-72
2020/12/14 05:14:23;;;;;;;3.30;2.37;;;6.10;99.90;;;;;;5093726;28;20234;-72
2020/12/14 05:16:50;;;;;;;9.60;3.00;;;6.00;99.90;;;;;;5091126;28;20219;-72
2020/12/14 05:19:27;;;;;;;6.27;2.53;;;6.10;99.90;;;;;;5077227;28;20434;-72
2020/12/14 05:21:56;;;;;;;4.07;2.60;;;6.10;99.90;;;;;;5093731;28;20889;-72
2020/12/14 05:24:24;;;;;;;4.63;2.10;;;6.10;99.90;;;;;;5092386;28;20420;-72
2020/12/14 05:26:50;;;;;;;4.73;2.60;;;6.10;99.90;;;;;;5093530;28;20472;-72
2020/12/14 05:29:23;;;;;;;3.30;2.13;;;6.10;99.90;;;;;;5093901;28;20774;-72
2020/12/14 05:32:00;;;;;;;7.17;3.27;;;6.10;99.90;;;;;;5093637;28;20431;-72
2020/12/14 05:34:35;;;;;;;6.00;2.90;;;6.10;99.90;;;;;;5093550;28;20419;-72
2020/12/14 05:37:03;;;;;;;4.73;3.17;;;6.10;99.90;;;;;;5093794;28;21096;-72
2020/12/14 05:39:30;;;;;;;2.57;2.30;;;6.00;99.90;;;;;;5092710;28;20782;-72
2020/12/14 05:42:14;;;;;;;7.47;2.43;;;6.00;99.90;;;;;;5092392;28;20481;-71
2020/12/14 05:44:42;;;;;;;4.07;3.00;;;6.00;99.90;;;;;;5093235;28;20419;-71
2020/12/14 05:47:28;;;;;;;4.80;2.83;;;6.00;99.90;;;;;;5093415;28;20966;-72
2020/12/14 05:49:57;;;;;;;4.37;2.90;;;6.00;99.90;;;;;;5092353;28;20529;-72
2020/12/14 05:52:27;;;;;;;4.00;2.37;;;6.00;99.90;;;;;;5092233;28;20428;-72
2020/12/14 05:54:57;;;;;;;4.10;2.87;;;6.10;99.90;;;;;;5092371;28;20427;-71
2020/12/14 05:57:33;;;;;;;10.47;3.10;;;6.10;99.90;;;;;;5091783;28;20415;-72
2020/12/14 06:00:11;;;;;;;6.77;2.87;;;6.00;99.90;;;;;;5090548;28;20541;-72
2020/12/14 06:02:37;;;;;;;3.67;2.90;;;6.10;99.90;;;;;;5093228;28;20762;-73
2020/12/14 06:05:05;;;;;;;4.63;2.60;;;6.10;99.90;;;;;;5089731;28;20424;-72
2020/12/14 06:07:32;;;;;;;4.37;2.63;;;6.10;99.90;;;;;;5092376;28;20972;-72
2020/12/14 06:10:01;;;;;;;3.20;2.50;;;6.10;99.90;;;;;;5089422;28;20788;-72
2020/12/14 06:12:29;;;;;;;6.10;2.63;;;6.20;99.90;;;;;;5087119;28;20502;-72
2020/12/14 06:15:09;;;;;;;4.63;2.83;;;6.20;99.90;;;;;;5085599;28;20423;-72
2020/12/14 06:17:36;;;;;;;3.30;2.70;;;6.20;99.90;;;;;;5091395;28;20480;-72
2020/12/14 06:20:06;;;;;;;3.77;2.20;;;6.20;99.90;;;;;;5090127;28;20490;-71
2020/12/14 06:22:33;;;;;;;5.70;3.20;;;6.20;99.90;;;;;;5092703;28;20417;-72
2020/12/14 06:25:02;;;;;;;2.67;2.17;;;6.20;99.90;;;;;;5090495;28;20445;-72
2020/12/14 06:27:28;;;;;;;3.30;2.27;;;6.20;99.90;;;;;;5092778;28;20400;-72
2020/12/14 06:29:55;;;;;;;5.07;3.10;;;6.20;99.90;;;;;;5090810;28;20452;-72
2020/12/14 06:32:36;;;;;;;4.60;2.57;;;6.20;99.90;;;;;;5092483;28;20449;-73
2020/12/14 06:35:14;;;;;;;5.07;2.50;;;6.20;99.90;;;;;;5091741;28;20432;-72
2020/12/14 06:37:50;;;;;;;11.10;3.50;;;6.30;99.90;;;;;;5092450;28;20419;-71
2020/12/14 06:40:17;;;;;;;5.97;2.87;;;6.30;99.90;;;;;;5080177;28;20490;-73
2020/12/14 06:42:43;;;;;;;10.00;2.80;;;6.30;99.90;;;;;;5085716;28;20457;-71
2020/12/14 06:45:10;;;;;;;6.53;2.60;;;6.30;99.90;;;;;;5079968;28;20427;-72
2020/12/14 06:47:40;;;;;;;5.60;3.07;;;6.30;99.90;;;;;;5092029;28;20590;-72
2020/12/14 06:50:26;;;;;;;6.80;3.33;;;6.40;99.90;;;;;;5090462;28;20828;-72
2020/12/14 06:52:52;;;;;;;4.03;2.53;;;6.30;99.90;;;;;;5092084;28;20499;-72
2020/12/14 06:55:41;;;;;;;8.57;3.60;;;6.30;99.90;;;;;;5091516;28;20526;-71
2020/12/14 06:58:29;;;;;;;6.00;3.23;;;6.40;99.90;;;;;;5093012;28;20166;-72
2020/12/14 07:00:55;;;;;;;5.57;2.70;;;6.30;99.90;;;;;;5090000;28;20466;-72
2020/12/14 07:03:33;;;;;;;5.27;3.40;;;6.40;99.90;;;;;;5082250;28;20427;-72
2020/12/14 07:06:00;;;;;;;6.97;3.17;;;6.40;99.90;;;;;;5081953;28;20427;-73
2020/12/14 07:08:41;;;;;;;2.87;2.57;;;6.40;99.90;;;;;;5089385;28;20572;-72
2020/12/14 07:11:15;;;;;;;4.90;2.70;;;6.40;99.90;;;;;;5084977;28;20803;-72
2020/12/14 07:13:42;;;;;;;2.90;2.70;;;6.40;99.90;;;;;;5087942;28;20615;-73
2020/12/14 07:16:10;;;;;;;7.93;3.90;;;6.50;99.90;;;;;;5082951;28;20445;-72
2020/12/14 07:18:38;;;;;;;7.40;5.37;;;6.40;99.90;;;;;;5085388;28;20419;-72
2020/12/14 07:21:13;;;;;;;3.93;2.57;;;6.40;99.90;;;;;;5082990;28;20455;-72
2020/12/14 07:23:44;;;;;;;7.53;2.73;;;6.40;99.90;;;;;;5089082;28;20427;-72
2020/12/14 07:26:12;;;;;;;7.37;3.00;;;6.50;99.90;;;;;;5090868;28;20412;-73
2020/12/14 07:28:39;;;;;;;7.27;2.50;;;6.50;99.90;;;;;;5091511;28;20438;-72
2020/12/14 07:31:17;;;;;;;5.67;2.57;;;6.50;99.90;;;;;;5090716;28;20530;-72
2020/12/14 07:33:57;;;;;;;7.17;3.40;;;6.60;99.90;;;;;;5083859;28;20407;-72
2020/12/14 07:36:27;;;;;;;4.67;3.03;;;6.60;99.90;;;;;;5089476;28;20411;-72
2020/12/14 07:38:57;;;;;;;4.90;2.60;;;6.60;99.90;;;;;;5091940;28;20498;-72
2020/12/14 07:41:24;;;;;;;7.40;3.50;;;6.60;99.90;;;;;;5091292;28;20455;-72
2020/12/14 07:43:59;;;;;;;4.07;3.00;;;6.60;99.90;;;;;;5090381;28;20450;-71
2020/12/14 07:46:34;;;;;;;5.33;3.83;;;6.70;99.90;;;;;;5091547;28;20479;-71
2020/12/14 07:49:06;;;;;;;3.40;3.10;;;6.70;99.90;;;;;;5091808;28;20415;-71
2020/12/14 07:51:36;;;;;;;4.87;2.90;;;6.70;99.90;;;;;;5091336;28;20803;-71
2020/12/14 07:54:14;;;;;;;3.77;3.07;;;6.70;99.90;;;;;;5090525;28;20416;-72
2020/12/14 07:56:42;;;;;;;12.63;3.87;;;6.70;99.90;;;;;;5089824;28;20419;-72
2020/12/14 07:59:25;;;;;;;3.90;3.27;;;6.70;99.90;;;;;;5092235;28;20481;-72
2020/12/14 08:01:51;;;;;;;3.37;2.27;;;6.70;99.90;;;;;;5091846;28;20895;-71
2020/12/14 08:04:35;;;;;;;11.73;3.33;;;6.60;99.90;;;;;;5095200;28;20480;-72
2020/12/14 08:07:02;;;;;;;4.40;3.33;;;6.60;99.90;;;;;;5075231;28;20454;-72
2020/12/14 08:09:31;;;;;;;5.63;3.10;;;6.60;99.90;;;;;;5090338;28;20419;-72
2020/12/14 08:11:58;;;;;;;4.63;3.10;;;6.60;99.90;;;;;;5094849;28;20423;-72
2020/12/14 08:14:25;;;;;;;9.87;3.63;;;6.70;99.90;;;;;;5095371;28;20907;-72
2020/12/14 08:16:51;;;;;;;4.77;3.37;;;6.70;99.90;;;;;;5094957;28;20412;-71
2020/12/14 08:19:19;;;;;;;11.93;3.50;;;6.70;99.90;;;;;;5092551;28;21117;-72
2020/12/14 08:22:00;;;;;;;7.90;2.80;;;6.70;99.90;;;;;;5094393;28;20479;-72
2020/12/14 08:24:27;;;;;;;4.50;3.07;;;6.70;99.90;;;;;;5075036;28;20396;-72
2020/12/14 08:26:59;;;;;;;5.00;2.97;;;6.80;99.90;;;;;;5074843;28;20459;-73
2020/12/14 08:29:27;;;;;;;3.63;2.60;;;6.80;99.90;;;;;;5093278;28;20465;-73
2020/12/14 08:31:55;;;;;;;3.43;2.90;;;6.80;99.90;;;;;;5094260;28;20428;-72
2020/12/14 08:34:33;;;;;;;5.23;3.27;;;6.70;99.90;;;;;;5093922;28;20476;-72
2020/12/14 08:36:59;;;;;;;4.97;2.90;;;6.70;99.90;;;;;;5094667;28;20447;-73
2020/12/14 08:39:25;;;;;;;4.30;3.00;;;6.70;99.90;;;;;;5094576;28;20427;-73
2020/12/14 08:42:06;;;;;;;5.17;3.10;;;6.70;99.90;;;;;;5092384;28;20459;-72
2020/12/14 08:44:33;;;;;;;6.60;2.97;;;6.80;99.90;;;;;;5086610;28;20473;-73
2020/12/14 08:47:00;;;;;;;4.80;3.07;;;6.80;99.90;;;;;;5086950;28;20449;-74
2020/12/14 08:49:27;;;;;;;3.83;3.30;;;6.90;99.90;;;;;;5086429;28;20435;-73
2020/12/14 08:51:52;;;;;;;10.37;3.23;;;6.90;99.90;;;;;;5085094;28;20721;-74
2020/12/14 08:54:19;;;;;;;3.67;3.37;;;6.90;99.90;;;;;;5084898;28;20419;-74
2020/12/14 08:56:45;;;;;;;4.67;4.20;;;7.00;99.90;;;;;;5084858;28;20177;-74
2020/12/14 08:59:18;;;;;;;4.60;3.50;;;7.00;99.90;;;;;;5085739;28;20839;-74
2020/12/14 09:02:03;;;;;;;7.10;2.97;;;7.00;99.90;;;;;;5085611;28;20459;-74
2020/12/14 09:04:37;;;;;;;4.67;3.93;;;7.10;99.90;;;;;;5085264;28;20514;-75
2020/12/14 09:07:06;;;;;;;4.20;3.17;;;7.20;99.90;;;;;;5084828;28;20415;-75
2020/12/14 09:09:39;;;;;;;3.77;3.20;;;7.20;99.90;;;;;;5086649;28;20897;-75
2020/12/14 09:12:12;;;;;;;5.87;3.70;;;7.20;99.90;;;;;;5080658;28;20459;-75
2020/12/14 09:14:38;;;;;;;3.77;3.37;;;7.30;99.90;;;;;;5085163;28;20470;-75
2020/12/14 09:17:11;;;;;;;4.40;4.00;;;7.30;99.90;;;;;;5085172;28;20531;-74
2020/12/14 09:19:37;;;;;;;6.30;4.70;;;7.30;99.90;;;;;;5093826;28;20618;-74
2020/12/14 09:22:04;;;;;;;6.50;4.27;;;7.30;99.90;;;;;;5093360;28;20453;-75
2020/12/14 09:24:34;;;;;;;7.33;3.97;;;7.30;99.90;;;;;;5080280;28;20486;-73
2020/12/14 09:27:08;;;;;;;3.97;3.50;;;7.30;99.90;;;;;;5081413;28;20419;-74
2020/12/14 09:29:39;;;;;;;6.27;3.80;;;7.30;99.90;;;;;;5089965;28;20987;-74
2020/12/14 09:32:05;;;;;;;5.90;4.00;;;7.30;99.90;;;;;;5092350;28;20431;-74
2020/12/14 09:34:31;;;;;;;8.53;3.33;;;7.30;99.90;;;;;;5093843;28;20396;-74
2020/12/14 09:36:59;;;;;;;4.50;3.50;;;7.40;99.90;;;;;;5092492;28;20423;-74
2020/12/14 09:39:26;;;;;;;10.03;3.90;;;7.40;99.90;;;;;;5092722;28;20952;-74
2020/12/14 09:41:52;;;;;;;6.00;4.17;;;7.50;99.90;;;;;;5093308;28;20458;-74
2020/12/14 09:44:18;;;;;;;5.10;3.67;;;7.60;99.90;;;;;;5092258;28;20485;-74
2020/12/14 09:46:44;;;;;;;8.60;4.10;;;7.70;99.90;;;;;;5091457;28;20431;-74
2020/12/14 09:49:10;;;;;;;6.93;3.70;;;7.70;99.90;;;;;;5091792;28;20189;-73
2020/12/14 09:51:36;;;;;;;6.90;4.23;;;7.80;99.90;;;;;;5093188;28;20457;-73
2020/12/14 09:54:04;;;;;;;7.83;4.10;;;7.80;99.90;;;;;;5090252;28;20462;-73
2020/12/14 09:56:29;;;;;;;7.33;3.87;;;7.90;99.90;;;;;;5093213;28;20410;-73
2020/12/14 09:58:55;;;;;;;12.90;4.40;;;7.90;99.90;;;;;;5091077;28;20435;-73
2020/12/14 10:01:21;;;;;;;6.10;3.43;;;8.00;99.90;;;;;;5092788;28;20223;-73
2020/12/14 10:03:46;;;;;;;5.40;3.70;;;8.10;99.90;;;;;;5092424;28;20223;-73
2020/12/14 10:06:15;;;;;;;10.50;4.10;;;8.20;99.90;;;;;;5091816;28;20257;-73
2020/12/14 10:08:41;;;;;;;4.67;3.73;;;8.20;99.90;;;;;;5092305;28;20578;-73
2020/12/14 10:11:08;;;;;;;5.47;4.57;;;8.30;99.90;;;;;;5090238;28;20447;-72
2020/12/14 10:13:35;;;;;;;7.80;3.50;;;8.30;99.90;;;;;;5092129;28;20400;-73
2020/12/14 10:16:01;;;;;;;4.97;4.17;;;8.30;99.90;;;;;;5092802;28;20423;-72
2020/12/14 10:18:27;;;;;;;5.50;3.70;;;8.40;99.90;;;;;;5090097;28;20431;-72
2020/12/14 10:20:53;;;;;;;7.83;3.83;;;8.50;99.90;;;;;;5091433;28;20826;-72
2020/12/14 10:23:18;;;;;;;5.30;3.37;;;8.60;99.90;;;;;;5092689;28;20161;-72
2020/12/14 10:25:44;;;;;;;6.73;3.67;;;8.70;99.90;;;;;;5089086;28;20185;-72
2020/12/14 10:28:09;;;;;;;6.70;3.90;;;8.80;99.90;;;;;;5093008;28;20689;-72
2020/12/14 10:30:36;;;;;;;6.13;3.50;;;8.80;99.90;;;;;;5092239;28;20215;-72
2020/12/14 10:33:02;;;;;;;4.30;3.00;;;8.80;99.90;;;;;;5092554;28;20169;-72
2020/12/14 10:35:28;;;;;;;8.20;3.67;;;8.90;99.90;;;;;;5092701;28;20490;-72
2020/12/14 10:37:55;;;;;;;7.20;4.70;;;9.00;99.90;;;;;;5092753;28;20439;-71
2020/12/14 10:40:24;;;;;;;7.07;3.70;;;9.00;99.90;;;;;;5091802;28;20194;-72
2020/12/14 10:42:50;;;;;;;4.00;3.27;;;9.10;99.90;;;;;;5092501;28;20889;-71
2020/12/14 10:45:16;;;;;;;4.40;3.40;;;9.10;99.90;;;;;;5092130;28;20434;-71
2020/12/14 10:47:41;;;;;;;5.63;3.50;;;9.30;99.90;;;;;;5089905;28;20291;-72
2020/12/14 10:50:08;;;;;;;4.20;3.10;;;9.70;99.90;;;;;;5086010;28;20255;-72
2020/12/14 10:52:34;;;;;;;8.90;3.03;;;9.90;99.90;;;;;;5090954;28;20421;-71
2020/12/14 10:55:00;;;;;;;6.27;3.73;;;9.90;99.90;;;;;;5082153;28;20424;-76
2020/12/14 10:57:26;;;;;;;8.20;3.63;;;9.90;99.90;;;;;;5087762;28;20753;-74
2020/12/14 10:59:55;;;;;;;3.57;3.27;;;9.90;99.90;;;;;;5091613;28;20431;-74
2020/12/14 11:02:21;;;;;;;7.17;3.87;;;9.80;99.90;;;;;;5092099;28;20169;-74
2020/12/14 11:04:47;;;;;;;4.43;3.00;;;9.80;99.90;;;;;;5092061;28;20407;-74
2020/12/14 11:07:12;;;;;;;4.70;3.97;;;9.70;99.90;;;;;;5092804;28;20404;-74
2020/12/14 11:09:38;;;;;;;4.30;3.17;;;9.80;99.90;;;;;;5092755;28;20189;-76
2020/12/14 11:12:05;;;;;;;7.70;4.00;;;9.80;99.90;;;;;;5092311;28;20272;-75
2020/12/14 11:14:32;;;;;;;4.07;3.10;;;9.70;99.90;;;;;;5092851;28;20212;-75
2020/12/14 11:16:58;;;;;;;10.03;3.20;;;9.70;99.90;;;;;;5089885;28;20577;-76
2020/12/14 11:19:24;;;;;;;4.87;3.47;;;9.70;99.90;;;;;;5093045;28;20423;-75
2020/12/14 11:21:54;;;;;;;8.30;3.80;;;9.70;99.90;;;;;;5091782;28;20459;-76
2020/12/14 11:24:20;;;;;;;7.20;3.60;;;9.70;99.90;;;;;;5076239;28;20177;-75
2020/12/14 11:26:46;;;;;;;3.67;3.20;;;9.70;99.90;;;;;;5091810;28;20423;-76
2020/12/14 11:29:12;;;;;;;8.10;4.37;;;9.70;99.90;;;;;;5091540;28;20553;-76
2020/12/14 11:31:38;;;;;;;7.43;3.83;;;9.60;99.90;;;;;;5091391;28;20195;-76
2020/12/14 11:34:04;;;;;;;6.93;4.30;;;9.60;99.90;;;;;;5092701;28;20433;-76
2020/12/14 11:36:31;;;;;;;5.93;3.73;;;9.60;99.90;;;;;;5091252;28;20428;-75
2020/12/14 11:38:57;;;;;;;4.60;3.53;;;9.60;99.90;;;;;;5096697;28;20173;-76
2020/12/14 11:41:23;;;;;;;5.77;3.80;;;9.60;99.90;;;;;;5096280;28;20495;-75
2020/12/14 11:43:49;;;;;;;4.40;3.13;;;9.60;99.90;;;;;;5096993;28;20460;-76
2020/12/14 11:46:14;;;;;;;4.73;3.43;;;9.60;99.90;;;;;;5096565;28;20419;-76
2020/12/14 11:48:40;;;;;;;7.27;4.10;;;9.60;99.90;;;;;;5095540;28;20707;-77
2020/12/14 11:51:06;;;;;;;5.93;3.43;;;9.70;99.90;;;;;;5095419;28;20252;-74
2020/12/14 11:53:31;;;;;;;5.17;3.03;;;9.70;99.90;;;;;;5095753;28;20174;-76
2020/12/14 11:55:57;;;;;;;11.13;3.20;;;9.80;99.90;;;;;;5097313;28;20208;-76
2020/12/14 11:58:22;;;;;;;4.40;2.63;;;9.80;99.90;;;;;;5096991;28;20185;-75
2020/12/14 12:00:48;;;;;;;10.90;3.60;;;9.90;99.90;;;;;;5095824;28;20201;-74
2020/12/14 12:03:13;;;;;;;6.23;2.90;;;10.00;99.90;;;;;;5096077;28;20768;-74
2020/12/14 12:05:39;;;;;;;4.20;3.10;;;10.00;99.90;;;;;;5083789;28;20174;-76
2020/12/14 12:08:05;;;;;;;3.67;3.07;;;10.20;99.90;;;;;;5096681;28;20161;-76
2020/12/14 12:10:30;;;;;;;4.27;2.77;;;10.30;99.90;;;;;;5098201;28;20204;-76
2020/12/14 12:12:56;;;;;;;9.40;3.37;;;10.40;99.90;;;;;;5097817;28;20194;-75
2020/12/14 12:15:22;;;;;;;3.93;3.00;;;10.40;99.90;;;;;;5097210;28;20177;-76
2020/12/14 12:17:47;;;;;;;4.90;2.90;;;10.40;99.90;;;;;;5097448;28;20177;-76
2020/12/14 12:20:13;;;;;;;6.53;3.53;;;10.30;99.90;;;;;;5088277;28;20204;-75
2020/12/14 12:22:38;;;;;;;6.03;4.03;;;10.30;99.90;;;;;;5097676;28;20237;-76
2020/12/14 12:25:05;;;;;;;4.00;3.00;;;10.30;99.90;;;;;;5098761;28;20188;-75
2020/12/14 12:27:30;;;;;;;8.53;3.77;;;10.30;99.90;;;;;;5094294;28;20218;-75
2020/12/14 12:29:56;;;;;;;10.90;3.27;;;10.30;99.90;;;;;;5094985;28;20851;-74
2020/12/14 12:32:22;;;;;;;8.50;2.60;;;10.40;99.90;;;;;;5094488;28;20902;-74
2020/12/14 12:34:47;;;;;;;5.70;2.80;;;10.40;99.90;;;;;;5094861;28;20186;-74
2020/12/14 12:37:13;;;;;;;8.73;3.80;;;10.40;99.90;;;;;;5093835;28;20627;-75
2020/12/14 12:39:39;;;;;;;5.70;3.63;;;10.60;99.90;;;;;;5096395;28;20224;-73
2020/12/14 12:42:05;;;;;;;3.93;3.03;;;10.80;99.90;;;;;;5094329;28;20228;-74
2020/12/14 12:44:31;;;;;;;6.70;3.43;;;11.10;99.90;;;;;;5094176;28;20434;-73
2020/12/14 12:46:56;;;;;;;5.90;3.90;;;11.20;99.90;;;;;;5101361;28;20445;-75
2020/12/14 12:49:22;;;;;;;3.37;3.07;;;11.20;99.90;;;;;;5093063;28;20190;-73
2020/12/14 12:51:50;;;;;;;5.73;3.03;;;11.20;99.90;;;;;;5087976;28;20185;-73
2020/12/14 12:54:16;;;;;;;6.37;3.90;;;11.00;99.90;;;;;;5090261;28;20470;-72
2020/12/14 12:56:42;;;;;;;6.07;3.20;;;11.00;99.90;;;;;;5093775;28;20428;-73
2020/12/14 12:59:08;;;;;;;5.50;4.17;;;10.80;99.90;;;;;;5094420;28;20395;-74